Time;durP1;ratioP1;P1;durP2;ratioP2;P2;SDS_P1;SDS_P2;PMS_P1;PMS_P2;Temp;Humidity;BMP_temperature;BMP_pressure;BME280_temperature;BME280_humidity;BME280_pressure;Samples;Min_cycle;Max_cycle;Signal;HPM_P1;HPM_P2
2022/03/04 00:02:00;;;;;;;15.38;8.23;;;1.30;99.90;;;;;;6242096;23;20020;-83
2022/03/04 00:04:26;;;;;;;18.15;8.80;;;1.20;99.90;;;;;;6242368;22;20016;-83
2022/03/04 00:06:54;;;;;;;18.50;8.73;;;1.20;99.90;;;;;;6243158;22;20608;-81
2022/03/04 00:09:20;;;;;;;20.17;9.23;;;1.20;99.90;;;;;;6244474;22;20022;-82
2022/03/04 00:11:49;;;;;;;17.30;8.50;;;1.20;99.90;;;;;;6244335;22;20016;-83
2022/03/04 00:14:15;;;;;;;18.30;8.50;;;1.20;99.90;;;;;;6244293;22;20665;-84
2022/03/04 00:16:41;;;;;;;18.10;8.95;;;1.20;99.90;;;;;;6243438;23;20055;-82
2022/03/04 00:19:07;;;;;;;16.52;8.82;;;1.20;99.90;;;;;;6267483;22;20465;-84
2022/03/04 00:21:42;;;;;;;18.70;9.30;;;1.10;99.90;;;;;;6244123;22;20024;-81
2022/03/04 00:24:09;;;;;;;21.38;9.57;;;1.10;99.90;;;;;;6242309;23;20012;-82
2022/03/04 00:26:36;;;;;;;16.13;8.63;;;1.10;99.90;;;;;;6242360;23;20016;-85
2022/03/04 00:29:03;;;;;;;20.70;9.93;;;1.10;99.90;;;;;;6243577;22;20086;-84
2022/03/04 00:31:28;;;;;;;17.75;8.88;;;1.10;99.90;;;;;;6244092;22;20062;-83
2022/03/04 00:33:54;;;;;;;19.67;9.10;;;1.10;99.90;;;;;;6244106;23;20434;-83
2022/03/04 00:36:23;;;;;;;17.70;9.65;;;1.00;99.90;;;;;;6241802;23;20019;-84
2022/03/04 00:38:50;;;;;;;18.40;9.23;;;1.00;99.90;;;;;;6241959;23;20068;-84
2022/03/04 00:41:18;;;;;;;18.83;9.60;;;1.00;99.90;;;;;;6232951;22;20017;-84
2022/03/04 00:43:44;;;;;;;20.70;9.27;;;1.50;99.90;;;;;;6213022;23;20036;-82
2022/03/04 00:46:11;;;;;;;19.40;9.48;;;0.90;99.90;;;;;;6213172;23;20064;-84
2022/03/04 00:48:37;;;;;;;21.48;10.93;;;0.90;99.90;;;;;;6213387;23;20023;-82
2022/03/04 00:51:03;;;;;;;19.40;9.27;;;0.90;99.90;;;;;;6186202;23;20468;-84
2022/03/04 00:53:30;;;;;;;19.48;9.02;;;0.90;99.90;;;;;;6213370;23;20016;-83
2022/03/04 00:55:56;;;;;;;21.27;10.10;;;0.90;99.90;;;;;;6213381;23;20393;-84
2022/03/04 00:58:22;;;;;;;18.50;10.23;;;1.90;99.90;;;;;;6212943;23;20020;-83
2022/03/04 01:00:48;;;;;;;20.63;9.68;;;0.80;99.90;;;;;;6213218;23;20615;-84
2022/03/04 01:03:13;;;;;;;23.85;9.88;;;0.80;99.90;;;;;;6213480;23;20016;-83
2022/03/04 01:05:39;;;;;;;17.98;9.65;;;0.80;99.90;;;;;;6213390;23;20106;-83
2022/03/04 01:08:05;;;;;;;22.90;10.38;;;0.80;99.90;;;;;;6213537;23;20056;-84
2022/03/04 01:10:30;;;;;;;20.38;10.38;;;0.80;99.90;;;;;;6213664;23;20527;-84
2022/03/04 01:12:56;;;;;;;18.48;9.85;;;0.80;99.90;;;;;;6213427;23;20009;-84
2022/03/04 01:15:23;;;;;;;20.25;10.35;;;0.80;99.90;;;;;;6212894;23;20024;-84
2022/03/04 01:17:48;;;;;;;22.55;10.10;;;0.70;99.90;;;;;;6212933;23;20019;-84
2022/03/04 01:20:14;;;;;;;19.25;10.75;;;0.70;99.90;;;;;;6212535;23;20028;-83
2022/03/04 01:22:40;;;;;;;23.20;11.23;;;0.70;99.90;;;;;;6213316;23;20016;-84
2022/03/04 01:25:06;;;;;;;26.17;10.80;;;0.70;99.90;;;;;;6213178;23;20461;-84
2022/03/04 01:27:32;;;;;;;19.92;10.07;;;0.60;99.90;;;;;;6213139;23;20051;-82
2022/03/04 01:29:58;;;;;;;21.77;10.93;;;0.60;99.90;;;;;;6212251;23;20023;-83
2022/03/04 01:32:23;;;;;;;23.17;11.07;;;0.60;99.90;;;;;;6212612;23;20013;-83
2022/03/04 01:34:49;;;;;;;22.10;11.48;;;0.60;99.90;;;;;;6185869;23;20052;-82
2022/03/04 01:37:15;;;;;;;18.25;9.35;;;0.60;99.90;;;;;;6185919;23;20024;-84
2022/03/04 01:39:41;;;;;;;19.02;10.38;;;0.50;99.90;;;;;;6212597;23;20020;-82
2022/03/04 01:42:07;;;;;;;21.77;11.23;;;1.20;99.90;;;;;;6212442;23;20028;-82
2022/03/04 01:44:33;;;;;;;20.38;10.35;;;0.50;99.90;;;;;;6212384;23;20028;-83
2022/03/04 01:46:59;;;;;;;23.48;10.40;;;0.50;99.90;;;;;;6185448;23;20017;-83
2022/03/04 01:49:25;;;;;;;25.25;11.95;;;0.50;99.90;;;;;;6212722;23;20039;-84
2022/03/04 01:51:50;;;;;;;21.48;10.50;;;0.50;99.90;;;;;;6212827;23;20020;-83
2022/03/04 01:54:16;;;;;;;24.25;11.13;;;0.40;99.90;;;;;;6212893;23;20016;-84
2022/03/04 01:56:42;;;;;;;21.65;11.00;;;0.40;99.90;;;;;;6185866;23;20016;-84
2022/03/04 01:59:07;;;;;;;23.88;11.18;;;0.40;99.90;;;;;;6212663;23;20345;-83
2022/03/04 02:01:34;;;;;;;23.15;11.05;;;0.30;99.90;;;;;;6212125;23;20465;-83
2022/03/04 02:04:00;;;;;;;24.02;11.10;;;0.30;99.90;;;;;;6185564;23;20090;-82
2022/03/04 02:06:26;;;;;;;24.13;11.38;;;0.30;99.90;;;;;;6212472;23;20451;-84
2022/03/04 02:08:52;;;;;;;26.05;12.00;;;0.30;99.90;;;;;;6212660;23;20017;-84
2022/03/04 02:11:17;;;;;;;21.98;11.73;;;0.30;99.90;;;;;;6212384;23;20017;-83
2022/03/04 02:13:43;;;;;;;28.13;11.98;;;0.30;99.90;;;;;;6185653;23;20017;-84
2022/03/04 02:16:34;;;;;;;20.83;11.25;;;0.30;99.90;;;;;;6212293;23;20112;-84
2022/03/04 02:19:01;;;;;;;24.05;11.30;;;0.20;99.90;;;;;;6212541;23;20355;-83
2022/03/04 02:21:30;;;;;;;24.95;12.02;;;0.20;99.90;;;;;;6212737;23;20079;-83
2022/03/04 02:23:55;;;;;;;23.58;11.65;;;0.20;99.90;;;;;;6212743;23;20020;-83
2022/03/04 02:26:21;;;;;;;28.27;12.20;;;0.10;99.90;;;;;;6212270;23;20024;-84
2022/03/04 02:28:47;;;;;;;25.67;12.40;;;0.10;99.90;;;;;;6211984;23;20013;-84
2022/03/04 02:31:17;;;;;;;21.35;11.20;;;0.10;99.90;;;;;;6185191;23;20147;-82
2022/03/04 02:33:44;;;;;;;25.30;11.32;;;0.10;99.90;;;;;;6184726;23;20024;-83
2022/03/04 02:36:10;;;;;;;23.75;11.95;;;0.10;99.90;;;;;;6185215;23;20090;-84
2022/03/04 02:38:36;;;;;;;27.67;13.15;;;0.10;99.90;;;;;;6212281;23;20048;-84
2022/03/04 02:41:02;;;;;;;25.10;11.48;;;0.10;99.90;;;;;;6165954;23;20470;-83
2022/03/04 02:43:28;;;;;;;22.80;11.27;;;0.00;99.90;;;;;;6184963;23;20080;-84
2022/03/04 02:45:54;;;;;;;24.73;12.40;;;0.00;99.90;;;;;;6185118;23;20418;-83
2022/03/04 02:48:19;;;;;;;25.50;12.35;;;0.00;99.90;;;;;;6184779;23;20055;-84
2022/03/04 02:50:45;;;;;;;22.95;12.02;;;0.00;99.90;;;;;;6185247;23;20067;-82
2022/03/04 02:53:11;;;;;;;26.50;12.45;;;0.00;99.90;;;;;;6212286;23;20016;-83
2022/03/04 02:55:37;;;;;;;25.52;12.15;;;0.00;99.90;;;;;;6212034;23;20017;-84
2022/03/04 02:58:03;;;;;;;26.45;12.68;;;0.00;99.90;;;;;;6212006;23;20020;-83
2022/03/04 03:00:29;;;;;;;29.23;13.88;;;-0.10;99.90;;;;;;6184623;23;20438;-81
2022/03/04 03:02:54;;;;;;;22.67;12.63;;;0.00;99.90;;;;;;6211825;23;20013;-81
2022/03/04 03:05:20;;;;;;;28.17;12.70;;;-0.10;99.90;;;;;;6212316;23;20450;-83
2022/03/04 03:07:46;;;;;;;25.80;12.38;;;-0.20;99.90;;;;;;6212363;23;20446;-83
2022/03/04 03:10:12;;;;;;;29.55;12.35;;;-0.10;99.90;;;;;;6211826;23;20723;-84
2022/03/04 03:12:42;;;;;;;26.20;13.10;;;-0.10;99.90;;;;;;6184861;23;20450;-83
2022/03/04 03:15:09;;;;;;;24.95;12.73;;;-0.10;99.90;;;;;;6185201;23;20472;-84
2022/03/04 03:17:36;;;;;;;28.65;13.13;;;-0.20;99.90;;;;;;6185190;23;20020;-83
2022/03/04 03:20:03;;;;;;;25.40;12.93;;;-0.20;99.90;;;;;;6159548;23;20020;-83
2022/03/04 03:22:28;;;;;;;27.95;13.23;;;-0.20;99.90;;;;;;6184516;23;20047;-84
2022/03/04 03:24:54;;;;;;;30.85;14.20;;;-0.20;99.90;;;;;;6184910;23;20017;-83
2022/03/04 03:27:20;;;;;;;24.95;12.77;;;-0.20;99.90;;;;;;6212043;23;20453;-83
2022/03/04 03:29:46;;;;;;;25.15;13.18;;;-0.30;99.90;;;;;;6212007;23;20009;-84
2022/03/04 03:32:12;;;;;;;29.48;13.57;;;-0.30;99.90;;;;;;6212082;23;20569;-84
2022/03/04 03:34:39;;;;;;;30.27;13.48;;;-0.30;99.90;;;;;;6184746;23;20025;-84
2022/03/04 03:37:06;;;;;;;24.92;11.98;;;-0.30;99.90;;;;;;6211894;23;20028;-84
2022/03/04 03:39:32;;;;;;;28.83;12.57;;;-0.30;99.90;;;;;;6211978;23;20020;-83
2022/03/04 03:41:58;;;;;;;26.23;14.07;;;0.50;99.90;;;;;;6211566;23;20466;-84
2022/03/04 03:44:23;;;;;;;29.77;14.45;;;-0.40;99.90;;;;;;6211924;23;20020;-84
2022/03/04 03:46:49;;;;;;;28.65;13.73;;;-0.40;99.90;;;;;;6211963;23;20013;-84
2022/03/04 03:49:15;;;;;;;26.08;12.93;;;-0.40;99.90;;;;;;6212060;23;20020;-84
2022/03/04 03:51:41;;;;;;;26.52;13.18;;;-0.40;99.90;;;;;;6184613;23;20020;-83
2022/03/04 03:54:07;;;;;;;28.20;13.00;;;-0.50;99.90;;;;;;6211610;23;20338;-84
2022/03/04 03:56:32;;;;;;;32.10;14.98;;;-0.50;99.90;;;;;;6211380;23;20017;-83
2022/03/04 03:58:58;;;;;;;28.63;13.18;;;-0.50;99.90;;;;;;6211927;23;20017;-84
2022/03/04 04:01:24;;;;;;;29.33;13.93;;;-0.50;99.90;;;;;;6211363;23;20346;-83
2022/03/04 04:03:50;;;;;;;30.27;13.38;;;-0.50;99.90;;;;;;6211677;23;20032;-81
2022/03/04 04:06:16;;;;;;;27.02;13.32;;;-0.60;99.90;;;;;;6184129;23;20020;-83
2022/03/04 04:08:42;;;;;;;31.02;13.77;;;-0.60;99.90;;;;;;6210930;23;20442;-83
2022/03/04 04:11:08;;;;;;;26.58;13.02;;;-0.60;99.90;;;;;;6211844;23;20028;-83
2022/03/04 04:13:33;;;;;;;32.88;14.13;;;-0.60;99.90;;;;;;6211622;23;20036;-83
2022/03/04 04:15:59;;;;;;;29.42;13.55;;;-0.70;99.90;;;;;;6184369;23;20106;-82
2022/03/04 04:18:25;;;;;;;28.10;12.90;;;-0.70;99.90;;;;;;6184060;23;20021;-81
2022/03/04 04:20:51;;;;;;;32.80;13.65;;;-0.70;99.90;;;;;;6184368;23;20028;-82
2022/03/04 04:23:16;;;;;;;29.63;14.68;;;-0.70;99.90;;;;;;6210852;23;20342;-83
2022/03/04 04:25:42;;;;;;;29.58;14.35;;;-0.80;99.90;;;;;;6211505;23;20024;-84
2022/03/04 04:28:08;;;;;;;30.67;14.63;;;-0.80;99.90;;;;;;6211757;23;20043;-82
2022/03/04 04:30:33;;;;;;;28.70;13.95;;;-0.80;99.90;;;;;;6184236;23;20468;-81
2022/03/04 04:32:59;;;;;;;33.10;14.00;;;-0.80;99.90;;;;;;6159306;23;20023;-84
2022/03/04 04:35:25;;;;;;;32.50;13.95;;;-0.90;99.90;;;;;;6211031;23;20112;-83
2022/03/04 04:37:50;;;;;;;26.73;13.00;;;-0.90;99.90;;;;;;6183988;23;20028;-84
2022/03/04 04:40:16;;;;;;;32.75;13.80;;;-0.90;99.90;;;;;;6211299;23;20027;-83
2022/03/04 04:42:42;;;;;;;27.70;13.68;;;-0.90;99.90;;;;;;6230206;23;20016;-84
2022/03/04 04:45:09;;;;;;;28.20;13.43;;;-1.00;99.90;;;;;;6239781;23;20027;-82
2022/03/04 04:47:35;;;;;;;35.20;14.90;;;-1.00;99.90;;;;;;6241805;23;20337;-84
2022/03/04 04:50:01;;;;;;;35.60;16.20;;;-1.10;99.90;;;;;;6241508;23;20024;-83
2022/03/04 04:52:27;;;;;;;27.67;14.25;;;-1.10;99.90;;;;;;6240006;23;20051;-83
2022/03/04 04:54:52;;;;;;;32.13;14.38;;;-1.10;99.90;;;;;;6243728;23;20346;-83
2022/03/04 04:57:18;;;;;;;35.15;13.68;;;-1.10;99.90;;;;;;6243736;23;20016;-83
2022/03/04 04:59:44;;;;;;;35.60;14.95;;;-1.10;99.90;;;;;;6241630;23;20028;-82
2022/03/04 05:02:09;;;;;;;29.95;14.75;;;-1.20;99.90;;;;;;6243143;22;20023;-84
2022/03/04 05:04:35;;;;;;;32.70;14.43;;;-1.20;99.90;;;;;;6243182;23;20023;-84
2022/03/04 05:07:04;;;;;;;30.97;13.90;;;-1.20;99.90;;;;;;6243142;23;20066;-83
2022/03/04 05:09:29;;;;;;;37.83;14.33;;;-1.20;99.90;;;;;;6243370;23;20376;-84
2022/03/04 05:11:55;;;;;;;32.33;14.20;;;-1.20;99.90;;;;;;6267178;22;20043;-84
2022/03/04 05:14:21;;;;;;;31.57;14.63;;;0.00;99.90;;;;;;6243386;23;20320;-83
2022/03/04 05:16:46;;;;;;;35.30;15.53;;;-1.30;99.90;;;;;;6241427;23;20027;-82
2022/03/04 05:19:12;;;;;;;37.20;15.27;;;-1.20;99.90;;;;;;6243267;23;20386;-83
2022/03/04 05:21:38;;;;;;;36.43;16.17;;;-1.20;99.90;;;;;;6241520;23;20020;-82
2022/03/04 05:24:06;;;;;;;38.87;14.37;;;-1.20;99.90;;;;;;6243158;23;20075;-82
2022/03/04 05:26:42;;;;;;;29.27;14.07;;;-1.20;99.90;;;;;;6243453;22;20087;-83
2022/03/04 05:29:09;;;;;;;36.38;15.65;;;-1.20;99.90;;;;;;6242677;23;20012;-81
2022/03/04 05:31:37;;;;;;;31.70;15.60;;;-1.20;99.90;;;;;;6240654;23;20023;-84
2022/03/04 05:34:02;;;;;;;35.23;15.40;;;-1.20;99.90;;;;;;6242976;23;20066;-81
2022/03/04 05:36:28;;;;;;;35.97;15.63;;;-1.20;99.90;;;;;;6243001;23;20016;-81
2022/03/04 05:38:54;;;;;;;34.50;16.40;;;-1.20;99.90;;;;;;6242504;23;20015;-81
2022/03/04 05:41:21;;;;;;;33.22;15.20;;;-1.20;99.90;;;;;;6234792;22;20338;-84
2022/03/04 05:43:47;;;;;;;36.37;15.73;;;-1.20;99.90;;;;;;6213262;23;20024;-84
2022/03/04 05:46:14;;;;;;;36.90;15.83;;;-1.20;99.90;;;;;;6213306;23;20013;-84
2022/03/04 05:48:40;;;;;;;32.80;15.10;;;-1.20;99.90;;;;;;6213251;23;20017;-84
2022/03/04 05:51:06;;;;;;;32.33;13.47;;;-1.10;99.90;;;;;;6186022;23;20354;-81
2022/03/04 05:53:33;;;;;;;33.17;16.30;;;-1.20;99.90;;;;;;6213311;23;20015;-83
2022/03/04 05:56:00;;;;;;;39.97;16.23;;;-1.10;99.90;;;;;;6212556;23;20470;-82
2022/03/04 05:58:26;;;;;;;32.53;15.63;;;-1.10;99.90;;;;;;6213116;23;20012;-83
2022/03/04 06:00:52;;;;;;;43.13;17.20;;;-1.10;99.90;;;;;;6212912;23;20017;-83
2022/03/04 06:03:18;;;;;;;34.13;16.83;;;-1.10;99.90;;;;;;6212983;23;20059;-85
2022/03/04 06:05:44;;;;;;;36.27;15.50;;;-1.10;99.90;;;;;;6212606;23;20485;-84
2022/03/04 06:08:10;;;;;;;34.53;16.02;;;-1.10;99.90;;;;;;6212801;23;20054;-83
2022/03/04 06:10:36;;;;;;;39.28;17.10;;;-1.20;99.90;;;;;;6212840;23;20036;-83
2022/03/04 06:13:02;;;;;;;32.70;15.93;;;-1.10;99.90;;;;;;6186320;23;20446;-83
2022/03/04 06:15:27;;;;;;;34.93;16.37;;;-1.20;99.90;;;;;;6212695;23;20047;-84
2022/03/04 06:17:54;;;;;;;36.43;16.77;;;-1.20;99.90;;;;;;6185840;23;20074;-81
2022/03/04 06:20:20;;;;;;;33.63;15.07;;;-1.10;99.90;;;;;;6212695;23;20013;-83
2022/03/04 06:22:46;;;;;;;38.97;17.13;;;-1.10;99.90;;;;;;6213037;23;20095;-84
2022/03/04 06:25:14;;;;;;;37.40;16.67;;;-1.10;99.90;;;;;;6185852;23;20476;-80
2022/03/04 06:28:01;;;;;;;36.13;16.57;;;-1.00;99.90;;;;;;6212344;23;20013;-83
2022/03/04 06:30:29;;;;;;;38.40;17.00;;;-1.00;99.90;;;;;;6212323;23;20013;-84
2022/03/04 06:33:30;;;;;;;32.47;15.90;;;-0.50;99.90;;;;;;6185676;23;20095;-82
2022/03/04 06:35:43;;;;;;;37.73;16.83;;;-1.00;99.90;;;;;;6212221;23;20021;-84
2022/03/04 06:38:09;;;;;;;34.27;17.10;;;-1.00;99.90;;;;;;6186234;23;20028;-83
2022/03/04 06:40:34;;;;;;;32.70;15.68;;;-1.00;99.90;;;;;;6212041;23;20020;-83
2022/03/04 06:43:00;;;;;;;41.40;17.03;;;-1.00;99.90;;;;;;6211577;23;20024;-81
2022/03/04 06:45:26;;;;;;;39.07;15.87;;;-1.00;99.90;;;;;;6212766;23;20036;-84
2022/03/04 06:47:51;;;;;;;39.43;16.90;;;-1.00;99.90;;;;;;6212471;23;20012;-84
2022/03/04 06:50:17;;;;;;;35.33;17.30;;;-1.00;99.90;;;;;;6212383;23;20016;-83
2022/03/04 06:52:43;;;;;;;38.07;17.87;;;-1.00;99.90;;;;;;6185850;23;20020;-81
2022/03/04 06:55:10;;;;;;;41.33;17.40;;;-1.00;99.90;;;;;;6212813;23;20009;-83
2022/03/04 06:57:36;;;;;;;37.80;17.33;;;-1.00;99.90;;;;;;6211793;23;20046;-82
2022/03/04 07:00:07;;;;;;;34.70;17.13;;;-1.00;99.90;;;;;;6185504;23;20028;-82
2022/03/04 07:02:34;;;;;;;33.73;16.73;;;-0.90;99.90;;;;;;6212337;23;20028;-83
2022/03/04 07:05:02;;;;;;;36.20;16.60;;;-0.90;99.90;;;;;;6212549;23;20020;-82
2022/03/04 07:07:28;;;;;;;36.77;16.47;;;-0.90;99.90;;;;;;6212270;23;20016;-82
2022/03/04 07:09:53;;;;;;;37.20;16.53;;;-0.90;99.90;;;;;;6184992;23;20023;-82
2022/03/04 07:12:19;;;;;;;33.13;15.90;;;-0.90;99.90;;;;;;6211527;23;20013;-83
2022/03/04 07:14:45;;;;;;;40.90;17.30;;;-0.90;99.90;;;;;;6212083;23;20017;-83
2022/03/04 07:17:10;;;;;;;32.63;16.20;;;-0.90;99.90;;;;;;6185235;23;20024;-80
2022/03/04 07:19:36;;;;;;;35.58;16.42;;;-0.90;99.90;;;;;;6212105;23;20024;-81
2022/03/04 07:22:02;;;;;;;39.83;18.33;;;-0.90;99.90;;;;;;6211863;23;20009;-83
2022/03/04 07:24:28;;;;;;;37.13;17.23;;;-0.80;99.90;;;;;;6211512;23;20058;-83
2022/03/04 07:26:54;;;;;;;34.43;16.57;;;-0.80;99.90;;;;;;6212664;23;20024;-83
2022/03/04 07:29:19;;;;;;;31.00;15.47;;;-0.80;99.90;;;;;;6211392;23;20023;-82
2022/03/04 07:31:45;;;;;;;34.17;16.40;;;-0.80;99.90;;;;;;6211514;23;20015;-83
2022/03/04 07:34:11;;;;;;;32.47;16.07;;;-0.80;99.90;;;;;;6212057;23;20357;-83
2022/03/04 07:36:37;;;;;;;38.03;17.13;;;-0.80;99.90;;;;;;6184934;23;20023;-82
2022/03/04 07:39:02;;;;;;;38.03;16.57;;;-0.80;99.90;;;;;;6211806;23;20021;-83
2022/03/04 07:41:28;;;;;;;36.00;15.82;;;-0.80;99.90;;;;;;6211717;23;20012;-82
2022/03/04 07:43:54;;;;;;;31.25;15.63;;;0.60;99.90;;;;;;6211387;23;20371;-82
2022/03/04 07:46:21;;;;;;;34.20;16.50;;;-0.70;99.90;;;;;;6212002;23;20084;-83
2022/03/04 07:48:47;;;;;;;33.10;16.90;;;-0.70;99.90;;;;;;6211489;23;20020;-81
2022/03/04 07:51:14;;;;;;;34.77;17.33;;;-0.70;99.90;;;;;;6211822;23;20036;-82
2022/03/04 07:53:40;;;;;;;32.23;16.90;;;-0.60;99.90;;;;;;6211719;23;20024;-83
2022/03/04 07:56:05;;;;;;;37.45;17.85;;;-0.60;99.90;;;;;;6211824;23;20019;-81
2022/03/04 07:58:31;;;;;;;31.48;16.33;;;-0.50;99.90;;;;;;6211794;23;20013;-82
2022/03/04 08:00:56;;;;;;;33.20;16.90;;;-0.50;99.90;;;;;;6211610;23;20034;-82
2022/03/04 08:03:22;;;;;;;32.78;15.35;;;-0.40;99.90;;;;;;6184194;23;20450;-81
2022/03/04 08:05:48;;;;;;;28.85;15.70;;;-0.40;99.90;;;;;;6211661;23;20311;-80
2022/03/04 08:08:13;;;;;;;31.17;15.52;;;-0.40;99.90;;;;;;6211729;23;20339;-81
2022/03/04 08:10:39;;;;;;;31.77;15.98;;;-0.30;99.90;;;;;;6211483;23;20334;-83
2022/03/04 08:13:05;;;;;;;32.80;16.10;;;-0.30;99.90;;;;;;6211754;23;20024;-83
2022/03/04 08:15:30;;;;;;;30.08;14.88;;;-0.30;99.90;;;;;;6211541;23;20338;-83
2022/03/04 08:17:56;;;;;;;34.17;15.50;;;-0.30;99.90;;;;;;6184243;23;20027;-84
2022/03/04 08:20:22;;;;;;;34.90;17.05;;;-0.30;99.90;;;;;;6211679;23;20807;-83
2022/03/04 08:22:47;;;;;;;29.95;14.95;;;-0.20;99.90;;;;;;6212113;23;20792;-83
2022/03/04 08:25:13;;;;;;;31.92;15.32;;;-0.30;99.90;;;;;;6211909;23;20099;-82
2022/03/04 08:27:41;;;;;;;34.17;16.25;;;-0.30;99.90;;;;;;6212460;23;20438;-82
2022/03/04 08:30:08;;;;;;;36.08;17.00;;;-0.30;99.90;;;;;;6213199;23;20017;-82
2022/03/04 08:32:35;;;;;;;35.58;16.75;;;-0.20;99.90;;;;;;6213851;23;20075;-83
2022/03/04 08:35:01;;;;;;;30.88;16.75;;;-0.10;99.90;;;;;;6213628;23;20016;-82
2022/03/04 08:37:27;;;;;;;34.72;17.77;;;-0.10;99.90;;;;;;6214022;23;20341;-83
2022/03/04 08:39:53;;;;;;;35.17;17.20;;;1.10;99.90;;;;;;6186677;23;20020;-82
2022/03/04 08:42:19;;;;;;;34.95;17.15;;;0.80;99.90;;;;;;6213648;23;20114;-81
2022/03/04 08:44:44;;;;;;;32.92;16.10;;;0.10;99.90;;;;;;6186528;23;20319;-81
2022/03/04 08:47:10;;;;;;;34.47;16.45;;;0.20;99.90;;;;;;6186273;23;20078;-83
2022/03/04 08:49:36;;;;;;;36.10;16.50;;;0.30;99.90;;;;;;6213126;23;20055;-83
2022/03/04 08:52:02;;;;;;;31.77;17.42;;;0.30;99.90;;;;;;6212801;23;20023;-82
2022/03/04 08:54:28;;;;;;;33.35;17.05;;;0.40;99.90;;;;;;6186568;23;20024;-83
2022/03/04 08:56:54;;;;;;;34.80;17.17;;;0.50;99.90;;;;;;6213270;23;20020;-81
2022/03/04 08:59:19;;;;;;;30.50;16.65;;;0.60;99.90;;;;;;6213063;23;20028;-82
2022/03/04 09:01:46;;;;;;;33.45;16.67;;;0.50;99.90;;;;;;6212524;23;20029;-83
2022/03/04 09:04:14;;;;;;;30.90;16.80;;;0.60;99.90;;;;;;6212953;23;20016;-82
2022/03/04 09:06:40;;;;;;;35.53;17.23;;;0.70;99.90;;;;;;6213135;23;20346;-82
2022/03/04 09:09:06;;;;;;;31.15;17.35;;;1.70;99.90;;;;;;6212965;23;20066;-82
2022/03/04 09:11:32;;;;;;;33.85;16.73;;;0.90;99.90;;;;;;6213625;23;20039;-83
2022/03/04 09:13:58;;;;;;;31.20;16.70;;;1.00;99.90;;;;;;6212798;23;20021;-84
2022/03/04 09:16:24;;;;;;;34.83;17.30;;;1.00;99.90;;;;;;6212582;23;20028;-84
2022/03/04 09:18:49;;;;;;;29.60;16.38;;;1.10;99.90;;;;;;6212455;23;20072;-83
2022/03/04 09:21:15;;;;;;;29.80;16.88;;;1.10;99.90;;;;;;6185671;23;20031;-83
2022/03/04 09:23:41;;;;;;;32.88;18.30;;;1.20;99.90;;;;;;6213100;23;20063;-84
2022/03/04 09:26:07;;;;;;;35.35;18.80;;;1.20;99.90;;;;;;6213275;23;20323;-80
2022/03/04 09:28:32;;;;;;;32.13;17.92;;;2.50;99.90;;;;;;6186460;23;20032;-84
2022/03/04 09:30:58;;;;;;;34.40;18.30;;;1.50;99.90;;;;;;6212836;23;20025;-84
2022/03/04 09:33:24;;;;;;;35.65;19.02;;;1.70;99.90;;;;;;6212593;23;20024;-84
2022/03/04 09:35:50;;;;;;;31.58;17.40;;;2.00;99.90;;;;;;6212879;23;20063;-82
2022/03/04 09:38:16;;;;;;;36.72;18.33;;;2.20;99.90;;;;;;6212700;23;20476;-84
2022/03/04 09:40:42;;;;;;;32.55;17.92;;;2.40;99.90;;;;;;6212432;23;20070;-84
2022/03/04 09:43:08;;;;;;;32.70;17.23;;;2.70;99.90;;;;;;6212869;23;20016;-84
2022/03/04 09:45:34;;;;;;;32.00;17.08;;;2.80;99.90;;;;;;6213178;23;20024;-84
2022/03/04 09:48:04;;;;;;;27.77;17.20;;;2.90;99.90;;;;;;6185315;23;20727;-83
2022/03/04 09:50:31;;;;;;;31.42;17.02;;;2.90;99.90;;;;;;6186432;23;20019;-84
2022/03/04 09:52:56;;;;;;;31.17;17.38;;;3.20;99.90;;;;;;6213158;23;20090;-84
2022/03/04 09:55:22;;;;;;;29.40;16.08;;;3.50;99.90;;;;;;6213177;23;20438;-85
2022/03/04 09:57:48;;;;;;;32.05;17.30;;;3.70;99.90;;;;;;6185834;23;20105;-84
2022/03/04 10:00:14;;;;;;;29.65;16.63;;;3.90;99.90;;;;;;6212787;23;20025;-84
2022/03/04 10:02:40;;;;;;;25.40;15.50;;;4.00;99.90;;;;;;6213006;23;20066;-83
2022/03/04 10:05:08;;;;;;;30.75;17.67;;;4.10;99.90;;;;;;6185928;23;20020;-84
2022/03/04 10:07:42;;;;;;;30.27;17.85;;;4.40;99.90;;;;;;6213338;23;20008;-84
2022/03/04 10:10:17;;;;;;;31.45;16.40;;;4.60;99.90;;;;;;6186142;23;20020;-83
2022/03/04 10:12:48;;;;;;;25.08;14.88;;;4.70;99.90;;;;;;6212929;23;20013;-84
2022/03/04 10:15:14;;;;;;;24.45;13.68;;;4.80;99.90;;;;;;6212945;23;20092;-83
2022/03/04 10:17:40;;;;;;;24.60;14.05;;;5.60;99.90;;;;;;6185069;23;20466;-84
2022/03/04 10:20:13;;;;;;;27.17;14.35;;;5.30;99.90;;;;;;6212651;23;20111;-84
2022/03/04 10:22:46;;;;;;;25.52;14.80;;;5.30;99.90;;;;;;6212962;23;20013;-83
2022/03/04 10:25:23;;;;;;;23.95;14.70;;;5.20;99.90;;;;;;6185147;23;20028;-84
2022/03/04 10:27:49;;;;;;;25.88;13.60;;;5.40;99.90;;;;;;6212500;23;20012;-84
2022/03/04 10:30:16;;;;;;;20.52;13.75;;;6.20;99.90;;;;;;6212790;23;20438;-84
2022/03/04 10:32:43;;;;;;;22.35;13.18;;;5.80;99.90;;;;;;6212705;23;20066;-84
2022/03/04 10:35:14;;;;;;;22.08;13.85;;;5.90;99.90;;;;;;6212085;23;20465;-82
2022/03/04 10:37:40;;;;;;;22.65;14.23;;;7.00;99.90;;;;;;6212748;23;20017;-84
2022/03/04 10:40:26;;;;;;;22.83;13.27;;;6.30;99.90;;;;;;6212478;23;20027;-84
2022/03/04 10:43:05;;;;;;;20.50;13.32;;;6.50;99.90;;;;;;6211905;23;20008;-82
2022/03/04 10:45:36;;;;;;;28.05;13.90;;;7.00;99.90;;;;;;6212390;23;20024;-84
2022/03/04 10:48:02;;;;;;;22.85;13.93;;;6.90;99.90;;;;;;6212605;23;20381;-84
2022/03/04 10:50:34;;;;;;;22.20;12.88;;;7.10;99.90;;;;;;6211827;23;20020;-83
2022/03/04 10:52:59;;;;;;;23.17;13.98;;;7.20;99.90;;;;;;6185510;23;20025;-86
2022/03/04 10:55:34;;;;;;;18.83;12.95;;;8.30;99.90;;;;;;6212258;23;20051;-78
2022/03/04 10:58:03;;;;;;;20.38;11.70;;;7.60;99.90;;;;;;6185769;23;20397;-82
2022/03/04 11:00:32;;;;;;;17.42;12.05;;;7.90;99.90;;;;;;6212160;23;20043;-84
2022/03/04 11:02:59;;;;;;;20.85;13.55;;;8.10;99.90;;;;;;6212171;23;20028;-83
2022/03/04 11:05:24;;;;;;;19.98;11.95;;;8.80;99.90;;;;;;6211830;23;20052;-83
2022/03/04 11:07:50;;;;;;;18.48;12.00;;;8.00;99.90;;;;;;6211799;23;20023;-85
2022/03/04 11:10:18;;;;;;;21.48;13.18;;;8.90;99.90;;;;;;6212333;23;20013;-81
2022/03/04 11:12:45;;;;;;;18.23;12.60;;;9.10;99.90;;;;;;6212075;23;20095;-83
2022/03/04 11:15:12;;;;;;;22.02;13.00;;;8.40;99.90;;;;;;6185874;23;20019;-84
2022/03/04 11:17:39;;;;;;;21.15;13.02;;;8.40;99.90;;;;;;6184921;23;20020;-84
2022/03/04 11:20:09;;;;;;;22.05;12.60;;;8.60;99.90;;;;;;6184963;23;20020;-83
2022/03/04 11:22:39;;;;;;;20.63;12.45;;;8.70;99.90;;;;;;6184851;23;20537;-83
2022/03/04 11:25:15;;;;;;;20.20;13.23;;;9.30;99.90;;;;;;6212318;23;20021;-83
2022/03/04 11:27:47;;;;;;;19.95;13.13;;;8.70;99.90;;;;;;6185176;23;20457;-83
2022/03/04 11:30:41;;;;;;;20.50;12.95;;;8.80;99.90;;;;;;6212420;23;20012;-85
2022/03/04 11:33:26;;;;;;;22.60;13.20;;;9.00;99.90;;;;;;6185581;23;20025;-84
2022/03/04 11:35:58;;;;;;;19.77;13.32;;;8.90;99.90;;;;;;6212350;23;20016;-83
2022/03/04 11:38:46;;;;;;;18.85;13.20;;;9.00;99.90;;;;;;6211614;23;20096;-83
2022/03/04 11:41:36;;;;;;;19.88;12.27;;;9.30;99.90;;;;;;6211870;23;20032;-84
2022/03/04 11:44:18;;;;;;;21.00;13.10;;;10.00;99.90;;;;;;6211840;23;20092;-83
2022/03/04 11:46:58;;;;;;;21.95;13.50;;;9.50;99.90;;;;;;6212065;23;20099;-83
2022/03/04 11:49:23;;;;;;;22.60;13.85;;;9.30;99.90;;;;;;6211987;23;20025;-83
2022/03/04 11:52:24;;;;;;;17.48;12.25;;;9.80;99.90;;;;;;6211210;23;20021;-83
2022/03/04 11:54:49;;;;;;;21.95;12.82;;;9.80;99.90;;;;;;6211826;23;20024;-84
2022/03/04 11:57:29;;;;;;;17.80;12.60;;;10.00;99.90;;;;;;6211877;23;20017;-84
2022/03/04 12:00:01;;;;;;;18.77;12.95;;;10.20;99.90;;;;;;6211252;23;20016;-82
2022/03/04 12:02:38;;;;;;;19.90;14.05;;;10.10;99.90;;;;;;6213732;23;20023;-82
2022/03/04 12:05:13;;;;;;;18.48;12.65;;;10.20;99.90;;;;;;6214860;23;20534;-82
2022/03/04 12:07:41;;;;;;;18.70;12.00;;;10.20;99.90;;;;;;6188147;23;20100;-83
2022/03/04 12:10:11;;;;;;;20.08;12.13;;;10.50;99.90;;;;;;6214933;23;20009;-84
2022/03/04 12:12:38;;;;;;;17.67;12.32;;;10.50;99.90;;;;;;6215206;23;20025;-84
2022/03/04 12:15:16;;;;;;;16.17;11.38;;;11.10;99.90;;;;;;6214603;23;20052;-84
2022/03/04 12:17:59;;;;;;;19.30;11.43;;;10.70;99.90;;;;;;6214932;23;20020;-86
2022/03/04 12:20:40;;;;;;;19.10;12.52;;;10.60;99.90;;;;;;6214955;23;20024;-84
2022/03/04 12:23:27;;;;;;;20.08;12.70;;;10.60;99.90;;;;;;6215121;23;20023;-82
2022/03/04 12:25:53;;;;;;;17.70;12.48;;;10.90;99.90;;;;;;6214935;23;20075;-83
2022/03/04 12:28:22;;;;;;;18.75;11.85;;;11.00;99.90;;;;;;6214946;23;20020;-82
2022/03/04 12:31:11;;;;;;;18.40;12.35;;;11.20;99.90;;;;;;6188089;23;20016;-84
2022/03/04 12:33:40;;;;;;;15.27;11.05;;;11.40;99.90;;;;;;6153279;23;20016;-82
2022/03/04 12:36:08;;;;;;;17.40;12.20;;;12.00;99.90;;;;;;6215015;23;20346;-82